BLY70R EGGP-LFBE
Flight info
| Callsign | BLY70R |
|---|---|
| Flight time | 1h 26m |
| Altitude | 35000 |
| Route | NANTI L8 HON UN859 SOPIL DCT MAKOX DCT BUGUS |
| Aircraft | A320/M-SDE3FGHIRWY/LB1 |
Departure
| Time | 2026-04-24 21:52 |
|---|---|
| Airport | Liverpool John Lennon Airport (EGGP) |
Arrival
| Time | 2026-04-24 23:18 |
|---|---|
| Airport | Bergerac Dordogne-Périgord airport (LFBE) |
| Time | Latitude | Longitude | Altitude | Speed | Heading |
|---|---|---|---|---|---|
| 2026-04-24 20:41 | 53.33560 | -2.85589 | 87 ft | 0 kts | 175° |
| 2026-04-24 21:39 | 53.33562 | -2.85589 | 85 ft | 1 kts | 175° |
| 2026-04-24 21:39 | 53.33579 | -2.85591 | 87 ft | 3 kts | 176° |
| 2026-04-24 21:40 | 53.33597 | -2.85592 | 85 ft | 3 kts | 200° |
| 2026-04-24 21:40 | 53.33609 | -2.85576 | 90 ft | 3 kts | 253° |
| 2026-04-24 21:40 | 53.33612 | -2.85556 | 86 ft | 1 kts | 265° |
| 2026-04-24 21:40 | 53.33613 | -2.85529 | 87 ft | 2 kts | 265° |
| 2026-04-24 21:41 | 53.33613 | -2.85523 | 87 ft | 0 kts | 265° |
| 2026-04-24 21:44 | 53.33613 | -2.85524 | 87 ft | 1 kts | 265° |
| 2026-04-24 21:45 | 53.33612 | -2.85573 | 89 ft | 7 kts | 266° |
| 2026-04-24 21:45 | 53.33606 | -2.85703 | 85 ft | 14 kts | 265° |
| 2026-04-24 21:45 | 53.33598 | -2.85885 | 87 ft | 17 kts | 265° |
| 2026-04-24 21:45 | 53.33592 | -2.86094 | 87 ft | 18 kts | 264° |
| 2026-04-24 21:46 | 53.33585 | -2.86223 | 85 ft | 2 kts | 263° |
| 2026-04-24 21:49 | 53.33585 | -2.86225 | 85 ft | 1 kts | 263° |
| 2026-04-24 21:49 | 53.33582 | -2.86240 | 88 ft | 2 kts | 253° |
| 2026-04-24 21:49 | 53.33567 | -2.86272 | 89 ft | 5 kts | 225° |
| 2026-04-24 21:49 | 53.33521 | -2.86316 | 85 ft | 10 kts | 186° |
| 2026-04-24 21:50 | 53.33467 | -2.86367 | 87 ft | 12 kts | 252° |
| 2026-04-24 21:50 | 53.33457 | -2.86538 | 80 ft | 18 kts | 265° |
| 2026-04-24 21:50 | 53.33412 | -2.86713 | 71 ft | 11 kts | 218° |
| 2026-04-24 21:50 | 53.33379 | -2.86731 | 69 ft | 9 kts | 186° |
| 2026-04-24 21:51 | 53.33311 | -2.86681 | 71 ft | 12 kts | 143° |
| 2026-04-24 21:51 | 53.33289 | -2.86606 | 73 ft | 0 kts | 86° |
| 2026-04-24 21:51 | 53.33294 | -2.86494 | 74 ft | 41 kts | 85° |
| 2026-04-24 21:51 | 53.33337 | -2.85571 | 82 ft | 114 kts | 85° |
| 2026-04-24 21:52 | 53.33417 | -2.83945 | 204 ft | 155 kts | 84° |
| 2026-04-24 21:52 | 53.33505 | -2.82140 | 927 ft | 158 kts | 87° |
| 2026-04-24 21:52 | 53.33599 | -2.80301 | 1671 ft | 158 kts | 90° |
| 2026-04-24 21:52 | 53.33325 | -2.78514 | 2113 ft | 169 kts | 128° |
| 2026-04-24 21:53 | 53.32362 | -2.77230 | 2363 ft | 189 kts | 148° |
| 2026-04-24 21:53 | 53.31175 | -2.75973 | 2573 ft | 214 kts | 147° |
| 2026-04-24 21:53 | 53.29850 | -2.74561 | 2924 ft | 238 kts | 147° |
| 2026-04-24 21:53 | 53.28398 | -2.73006 | 3508 ft | 254 kts | 147° |
| 2026-04-24 21:54 | 53.26891 | -2.71382 | 3905 ft | 260 kts | 147° |
| 2026-04-24 21:54 | 53.25372 | -2.69745 | 3993 ft | 260 kts | 147° |
| 2026-04-24 21:54 | 53.23853 | -2.68108 | 4001 ft | 260 kts | 147° |
| 2026-04-24 21:54 | 53.22336 | -2.66470 | 4001 ft | 259 kts | 147° |
| 2026-04-24 21:55 | 53.20844 | -2.64860 | 4008 ft | 259 kts | 147° |
| 2026-04-24 21:55 | 53.19326 | -2.63227 | 4003 ft | 259 kts | 147° |
| 2026-04-24 21:55 | 53.17814 | -2.61580 | 4004 ft | 259 kts | 146° |
| 2026-04-24 21:55 | 53.16316 | -2.59842 | 4003 ft | 259 kts | 144° |
| 2026-04-24 21:56 | 53.14869 | -2.58114 | 4003 ft | 259 kts | 144° |
| 2026-04-24 21:56 | 53.13382 | -2.56329 | 4008 ft | 260 kts | 144° |
| 2026-04-24 21:56 | 53.11893 | -2.54551 | 4601 ft | 264 kts | 144° |
| 2026-04-24 21:56 | 53.10412 | -2.52790 | 5539 ft | 267 kts | 144° |
| 2026-04-24 21:57 | 53.08894 | -2.50986 | 6382 ft | 271 kts | 144° |
| 2026-04-24 21:57 | 53.07332 | -2.49131 | 7170 ft | 277 kts | 144° |
| 2026-04-24 21:57 | 53.05758 | -2.47269 | 7947 ft | 281 kts | 144° |
| 2026-04-24 21:57 | 53.04153 | -2.45376 | 8718 ft | 286 kts | 144° |
| 2026-04-24 21:58 | 53.02516 | -2.43450 | 9486 ft | 291 kts | 144° |
| 2026-04-24 21:58 | 53.00856 | -2.41497 | 10239 ft | 295 kts | 144° |
| 2026-04-24 21:58 | 52.99149 | -2.39491 | 10701 ft | 310 kts | 144° |
| 2026-04-24 21:58 | 52.97324 | -2.37348 | 10916 ft | 331 kts | 144° |
| 2026-04-24 21:59 | 52.95413 | -2.35109 | 11459 ft | 339 kts | 144° |
| 2026-04-24 21:59 | 52.93479 | -2.32852 | 12126 ft | 342 kts | 144° |
| 2026-04-24 21:59 | 52.91533 | -2.30583 | 12813 ft | 345 kts | 144° |
| 2026-04-24 21:59 | 52.89548 | -2.28269 | 13515 ft | 348 kts | 144° |
| 2026-04-24 22:00 | 52.87569 | -2.25964 | 14177 ft | 350 kts | 145° |
| 2026-04-24 22:00 | 52.85568 | -2.23637 | 14782 ft | 352 kts | 144° |
| 2026-04-24 22:00 | 52.83555 | -2.21296 | 15387 ft | 355 kts | 144° |
| 2026-04-24 22:00 | 52.81531 | -2.18942 | 15971 ft | 357 kts | 144° |
| 2026-04-24 22:01 | 52.79498 | -2.16581 | 16555 ft | 359 kts | 144° |
| 2026-04-24 22:01 | 52.77449 | -2.14204 | 17148 ft | 362 kts | 144° |
| 2026-04-24 22:01 | 52.75371 | -2.11799 | 17730 ft | 364 kts | 144° |
| 2026-04-24 22:01 | 52.73286 | -2.09390 | 18335 ft | 367 kts | 144° |
| 2026-04-24 22:02 | 52.71193 | -2.06979 | 18858 ft | 369 kts | 144° |
| 2026-04-24 22:02 | 52.69074 | -2.04539 | 19317 ft | 374 kts | 144° |
| 2026-04-24 22:02 | 52.66932 | -2.02070 | 19764 ft | 378 kts | 144° |
| 2026-04-24 22:02 | 52.64754 | -1.99563 | 20175 ft | 384 kts | 145° |
| 2026-04-24 22:03 | 52.62544 | -1.97020 | 20589 ft | 390 kts | 146° |
| 2026-04-24 22:03 | 52.60309 | -1.94455 | 21001 ft | 395 kts | 146° |
| 2026-04-24 22:03 | 52.58037 | -1.91850 | 21411 ft | 400 kts | 146° |
| 2026-04-24 22:03 | 52.55744 | -1.89225 | 21804 ft | 404 kts | 146° |
| 2026-04-24 22:04 | 52.53425 | -1.86573 | 22201 ft | 409 kts | 147° |
| 2026-04-24 22:04 | 52.51076 | -1.83891 | 22601 ft | 413 kts | 147° |
| 2026-04-24 22:04 | 52.48701 | -1.81186 | 22988 ft | 417 kts | 148° |
| 2026-04-24 22:04 | 52.46303 | -1.78460 | 23384 ft | 422 kts | 148° |
| 2026-04-24 22:05 | 52.43886 | -1.75714 | 23774 ft | 426 kts | 148° |
| 2026-04-24 22:05 | 52.41431 | -1.72929 | 24119 ft | 430 kts | 148° |
| 2026-04-24 22:05 | 52.38966 | -1.70130 | 24487 ft | 433 kts | 148° |
| 2026-04-24 22:05 | 52.36447 | -1.67431 | 24865 ft | 433 kts | 154° |
| 2026-04-24 22:06 | 52.33724 | -1.65365 | 25237 ft | 431 kts | 163° |
| 2026-04-24 22:06 | 52.30876 | -1.63845 | 25601 ft | 432 kts | 166° |
| 2026-04-24 22:06 | 52.28005 | -1.62358 | 25977 ft | 434 kts | 166° |
| 2026-04-24 22:06 | 52.25124 | -1.60871 | 26364 ft | 435 kts | 166° |
| 2026-04-24 22:07 | 52.22236 | -1.59379 | 26761 ft | 436 kts | 166° |
| 2026-04-24 22:07 | 52.19341 | -1.57881 | 27130 ft | 438 kts | 166° |
| 2026-04-24 22:07 | 52.16434 | -1.56372 | 27487 ft | 440 kts | 165° |
| 2026-04-24 22:07 | 52.13516 | -1.54852 | 27844 ft | 442 kts | 165° |
| 2026-04-24 22:08 | 52.10574 | -1.53320 | 28199 ft | 444 kts | 165° |
| 2026-04-24 22:08 | 52.07623 | -1.51787 | 28560 ft | 446 kts | 165° |
| 2026-04-24 22:08 | 52.04659 | -1.50253 | 28922 ft | 448 kts | 165° |
| 2026-04-24 22:08 | 52.01682 | -1.48718 | 29277 ft | 450 kts | 165° |
| 2026-04-24 22:09 | 51.98691 | -1.47180 | 29653 ft | 452 kts | 165° |
| 2026-04-24 22:09 | 51.95690 | -1.45636 | 30001 ft | 454 kts | 166° |
| 2026-04-24 22:09 | 51.92666 | -1.44080 | 30310 ft | 457 kts | 166° |
| 2026-04-24 22:09 | 51.89633 | -1.42519 | 30593 ft | 459 kts | 166° |
| 2026-04-24 22:10 | 51.86584 | -1.40955 | 30980 ft | 458 kts | 166° |
| 2026-04-24 22:10 | 51.83550 | -1.39402 | 31417 ft | 457 kts | 166° |
| 2026-04-24 22:10 | 51.80526 | -1.37862 | 31830 ft | 455 kts | 166° |
| 2026-04-24 22:10 | 51.77512 | -1.36328 | 32287 ft | 452 kts | 166° |
| 2026-04-24 22:11 | 51.74520 | -1.34805 | 32774 ft | 450 kts | 166° |
| 2026-04-24 22:11 | 51.71536 | -1.33289 | 33231 ft | 448 kts | 166° |
| 2026-04-24 22:11 | 51.68572 | -1.31787 | 33671 ft | 446 kts | 166° |
| 2026-04-24 22:11 | 51.65615 | -1.30285 | 34080 ft | 445 kts | 166° |
| 2026-04-24 22:12 | 51.62663 | -1.28786 | 34474 ft | 444 kts | 166° |
| 2026-04-24 22:12 | 51.59740 | -1.27303 | 34813 ft | 443 kts | 166° |
| 2026-04-24 22:12 | 51.56791 | -1.25809 | 35133 ft | 442 kts | 166° |
| 2026-04-24 22:13 | 51.50927 | -1.22860 | 35249 ft | 441 kts | 166° |
| 2026-04-24 22:13 | 51.45231 | -1.19086 | 35268 ft | 445 kts | 159° |
| 2026-04-24 22:14 | 51.39599 | -1.14942 | 35267 ft | 449 kts | 159° |
| 2026-04-24 22:14 | 51.33820 | -1.10697 | 35264 ft | 465 kts | 159° |
| 2026-04-24 22:15 | 51.27909 | -1.06363 | 35274 ft | 468 kts | 159° |
| 2026-04-24 22:15 | 51.22026 | -1.02052 | 35275 ft | 468 kts | 159° |
| 2026-04-24 22:16 | 51.16100 | -0.97735 | 35273 ft | 468 kts | 159° |
| 2026-04-24 22:16 | 51.10174 | -0.93450 | 35261 ft | 469 kts | 159° |
| 2026-04-24 22:17 | 51.05189 | -0.89848 | 35249 ft | 470 kts | 159° |
| 2026-04-24 22:17 | 50.99224 | -0.85528 | 35247 ft | 472 kts | 159° |
| 2026-04-24 22:18 | 50.93246 | -0.81223 | 35246 ft | 472 kts | 159° |
| 2026-04-24 22:18 | 50.87252 | -0.76912 | 35246 ft | 473 kts | 159° |
| 2026-04-24 22:19 | 50.81592 | -0.71674 | 35264 ft | 476 kts | 150° |
| 2026-04-24 22:19 | 50.75991 | -0.65987 | 35264 ft | 476 kts | 150° |
| 2026-04-24 22:20 | 50.70423 | -0.60322 | 35267 ft | 476 kts | 150° |
| 2026-04-24 22:20 | 50.64857 | -0.54681 | 35268 ft | 475 kts | 150° |
| 2026-04-24 22:21 | 50.59289 | -0.49069 | 35266 ft | 475 kts | 150° |
| 2026-04-24 22:21 | 50.53769 | -0.43510 | 35269 ft | 474 kts | 150° |
| 2026-04-24 22:22 | 50.48218 | -0.37936 | 35260 ft | 474 kts | 150° |
| 2026-04-24 22:22 | 50.42663 | -0.32381 | 35259 ft | 473 kts | 150° |
| 2026-04-24 22:23 | 50.37113 | -0.26849 | 35253 ft | 473 kts | 150° |
| 2026-04-24 22:23 | 50.31565 | -0.21325 | 35254 ft | 472 kts | 150° |
| 2026-04-24 22:24 | 50.26023 | -0.15823 | 35254 ft | 472 kts | 150° |
| 2026-04-24 22:24 | 50.20482 | -0.10320 | 35253 ft | 472 kts | 150° |
| 2026-04-24 22:25 | 50.14940 | -0.04851 | 35246 ft | 471 kts | 150° |
| 2026-04-24 22:25 | 50.09228 | 0.00071 | 35236 ft | 467 kts | 162° |
| 2026-04-24 22:26 | 50.03001 | 0.02755 | 35222 ft | 465 kts | 168° |
| 2026-04-24 22:26 | 49.96722 | 0.05221 | 35208 ft | 465 kts | 168° |
| 2026-04-24 22:27 | 49.90443 | 0.07699 | 35213 ft | 466 kts | 168° |
| 2026-04-24 22:27 | 49.84160 | 0.10166 | 35218 ft | 466 kts | 168° |
| 2026-04-24 22:28 | 49.77869 | 0.12617 | 35217 ft | 466 kts | 168° |
| 2026-04-24 22:28 | 49.71583 | 0.15070 | 35217 ft | 466 kts | 168° |
| 2026-04-24 22:29 | 49.62150 | 0.18793 | 35225 ft | 466 kts | 168° |
| 2026-04-24 22:29 | 49.55877 | 0.21340 | 35229 ft | 466 kts | 168° |
| 2026-04-24 22:30 | 49.49600 | 0.23879 | 35220 ft | 466 kts | 168° |
| 2026-04-24 22:30 | 49.43367 | 0.26381 | 35223 ft | 466 kts | 168° |
| 2026-04-24 22:31 | 49.37093 | 0.28881 | 35226 ft | 466 kts | 168° |
| 2026-04-24 22:31 | 49.30825 | 0.31375 | 35224 ft | 466 kts | 168° |
| 2026-04-24 22:32 | 49.24559 | 0.33949 | 35221 ft | 466 kts | 167° |
| 2026-04-24 22:32 | 49.18317 | 0.36626 | 35213 ft | 466 kts | 166° |
| 2026-04-24 22:33 | 49.12066 | 0.39292 | 35206 ft | 466 kts | 167° |
| 2026-04-24 22:33 | 49.05821 | 0.41909 | 35206 ft | 466 kts | 167° |
| 2026-04-24 22:34 | 48.99561 | 0.44510 | 35198 ft | 466 kts | 167° |
| 2026-04-24 22:34 | 48.93290 | 0.47128 | 35185 ft | 468 kts | 166° |
| 2026-04-24 22:35 | 48.86999 | 0.49754 | 35186 ft | 469 kts | 167° |
| 2026-04-24 22:35 | 48.80701 | 0.52355 | 35185 ft | 469 kts | 167° |
| 2026-04-24 22:36 | 48.74388 | 0.54913 | 35187 ft | 470 kts | 167° |
| 2026-04-24 22:36 | 48.68053 | 0.57368 | 35190 ft | 470 kts | 167° |
| 2026-04-24 22:37 | 48.61717 | 0.59814 | 35184 ft | 470 kts | 167° |
| 2026-04-24 22:37 | 48.55381 | 0.62284 | 35181 ft | 470 kts | 167° |
| 2026-04-24 22:38 | 48.49048 | 0.64775 | 35185 ft | 470 kts | 167° |
| 2026-04-24 22:38 | 48.42730 | 0.67348 | 35183 ft | 471 kts | 166° |
| 2026-04-24 22:39 | 48.36404 | 0.69944 | 35180 ft | 471 kts | 166° |
| 2026-04-24 22:39 | 48.30082 | 0.72515 | 35184 ft | 471 kts | 167° |
| 2026-04-24 22:40 | 48.23750 | 0.75069 | 35185 ft | 471 kts | 167° |
| 2026-04-24 22:40 | 48.17411 | 0.77577 | 35180 ft | 471 kts | 167° |
| 2026-04-24 22:41 | 48.11072 | 0.80055 | 35176 ft | 471 kts | 167° |
| 2026-04-24 22:41 | 48.04734 | 0.82529 | 35164 ft | 470 kts | 167° |
| 2026-04-24 22:42 | 47.98403 | 0.84999 | 35166 ft | 470 kts | 167° |
| 2026-04-24 22:42 | 47.92062 | 0.87476 | 35147 ft | 472 kts | 167° |
| 2026-04-24 22:43 | 47.85744 | 0.89925 | 35138 ft | 473 kts | 167° |
| 2026-04-24 22:43 | 47.79378 | 0.92389 | 35123 ft | 473 kts | 167° |
| 2026-04-24 22:44 | 47.73005 | 0.94862 | 35130 ft | 473 kts | 167° |
| 2026-04-24 22:44 | 47.66635 | 0.97333 | 35130 ft | 474 kts | 167° |
| 2026-04-24 22:45 | 47.60255 | 0.99794 | 35135 ft | 474 kts | 167° |
| 2026-04-24 22:45 | 47.53871 | 1.02240 | 35133 ft | 474 kts | 167° |
| 2026-04-24 22:46 | 47.47485 | 1.04676 | 35139 ft | 474 kts | 167° |
| 2026-04-24 22:46 | 47.41041 | 1.06381 | 35139 ft | 470 kts | 181° |
| 2026-04-24 22:47 | 47.34510 | 1.06242 | 35134 ft | 469 kts | 183° |
| 2026-04-24 22:47 | 47.27987 | 1.06074 | 35136 ft | 469 kts | 183° |
| 2026-04-24 22:48 | 47.21461 | 1.05936 | 35139 ft | 469 kts | 183° |
| 2026-04-24 22:48 | 47.14945 | 1.05792 | 35136 ft | 468 kts | 183° |
| 2026-04-24 22:49 | 47.08428 | 1.05633 | 35138 ft | 468 kts | 183° |
| 2026-04-24 22:49 | 47.01916 | 1.05563 | 35138 ft | 469 kts | 178° |
| 2026-04-24 22:50 | 46.98698 | 1.05913 | 35128 ft | 457 kts | 178° |
| 2026-04-24 22:50 | 46.95575 | 1.06269 | 35127 ft | 446 kts | 178° |
| 2026-04-24 22:50 | 46.89432 | 1.06960 | 35133 ft | 441 kts | 178° |
| 2026-04-24 22:51 | 46.83321 | 1.07646 | 35133 ft | 440 kts | 178° |
| 2026-04-24 22:51 | 46.77221 | 1.08317 | 35133 ft | 440 kts | 178° |
| 2026-04-24 22:52 | 46.71115 | 1.08975 | 35134 ft | 440 kts | 178° |
| 2026-04-24 22:52 | 46.65032 | 1.09647 | 34803 ft | 435 kts | 178° |
| 2026-04-24 22:53 | 46.62019 | 1.09981 | 34560 ft | 433 kts | 178° |
| 2026-04-24 22:53 | 46.59021 | 1.10310 | 34320 ft | 432 kts | 178° |
| 2026-04-24 22:53 | 46.56070 | 1.10635 | 34074 ft | 430 kts | 178° |
| 2026-04-24 22:53 | 46.53101 | 1.10961 | 33733 ft | 425 kts | 178° |
| 2026-04-24 22:54 | 46.50162 | 1.11284 | 33253 ft | 422 kts | 178° |
| 2026-04-24 22:54 | 46.47248 | 1.11603 | 32782 ft | 419 kts | 178° |
| 2026-04-24 22:54 | 46.44349 | 1.11921 | 32317 ft | 416 kts | 178° |
| 2026-04-24 22:54 | 46.41470 | 1.12236 | 31861 ft | 414 kts | 178° |
| 2026-04-24 22:55 | 46.38616 | 1.12548 | 31407 ft | 411 kts | 178° |
| 2026-04-24 22:55 | 46.35773 | 1.12855 | 30942 ft | 409 kts | 178° |
| 2026-04-24 22:55 | 46.32945 | 1.13163 | 30516 ft | 406 kts | 178° |
| 2026-04-24 22:55 | 46.30134 | 1.13469 | 30054 ft | 404 kts | 178° |
| 2026-04-24 22:56 | 46.27345 | 1.13776 | 29608 ft | 400 kts | 178° |
| 2026-04-24 22:56 | 46.24578 | 1.14078 | 29191 ft | 397 kts | 178° |
| 2026-04-24 22:56 | 46.21842 | 1.14371 | 28786 ft | 393 kts | 178° |
| 2026-04-24 22:56 | 46.19123 | 1.14663 | 28383 ft | 390 kts | 178° |
| 2026-04-24 22:57 | 46.16428 | 1.14956 | 27986 ft | 388 kts | 178° |
| 2026-04-24 22:57 | 46.13747 | 1.15249 | 27590 ft | 385 kts | 177° |
| 2026-04-24 22:57 | 46.11088 | 1.15537 | 27194 ft | 382 kts | 178° |
| 2026-04-24 22:57 | 46.08429 | 1.15822 | 26698 ft | 382 kts | 178° |
| 2026-04-24 22:58 | 46.05788 | 1.16103 | 26310 ft | 380 kts | 178° |
| 2026-04-24 22:58 | 46.03162 | 1.16386 | 25916 ft | 377 kts | 177° |
| 2026-04-24 22:58 | 46.00548 | 1.16667 | 25491 ft | 376 kts | 177° |
| 2026-04-24 22:58 | 45.97943 | 1.16948 | 25097 ft | 374 kts | 177° |
| 2026-04-24 22:59 | 45.95354 | 1.17227 | 24677 ft | 373 kts | 177° |
| 2026-04-24 22:59 | 45.92770 | 1.17505 | 24244 ft | 372 kts | 177° |
| 2026-04-24 22:59 | 45.87622 | 1.18050 | 23358 ft | 370 kts | 177° |
| 2026-04-24 23:00 | 45.85064 | 1.18317 | 22928 ft | 367 kts | 178° |
| 2026-04-24 23:00 | 45.82524 | 1.18587 | 22497 ft | 365 kts | 178° |
| 2026-04-24 23:00 | 45.79999 | 1.18859 | 22067 ft | 363 kts | 178° |
| 2026-04-24 23:00 | 45.77484 | 1.19130 | 21637 ft | 362 kts | 178° |
| 2026-04-24 23:01 | 45.74976 | 1.19400 | 21218 ft | 360 kts | 178° |
| 2026-04-24 23:01 | 45.72482 | 1.19666 | 20780 ft | 359 kts | 178° |
| 2026-04-24 23:01 | 45.69997 | 1.19928 | 20347 ft | 357 kts | 178° |
| 2026-04-24 23:01 | 45.67519 | 1.20188 | 19920 ft | 357 kts | 178° |
| 2026-04-24 23:02 | 45.65047 | 1.20449 | 19493 ft | 356 kts | 178° |
| 2026-04-24 23:02 | 45.63413 | 1.20623 | 19209 ft | 356 kts | 178° |
| 2026-04-24 23:02 | 45.60113 | 1.20972 | 18629 ft | 355 kts | 178° |
| 2026-04-24 23:02 | 45.57650 | 1.21230 | 18175 ft | 355 kts | 178° |
| 2026-04-24 23:03 | 45.56021 | 1.21401 | 17878 ft | 354 kts | 178° |
| 2026-04-24 23:03 | 45.53579 | 1.21659 | 17456 ft | 352 kts | 178° |
| 2026-04-24 23:03 | 45.51142 | 1.21922 | 17030 ft | 350 kts | 178° |
| 2026-04-24 23:03 | 45.48721 | 1.22183 | 16608 ft | 348 kts | 178° |
| 2026-04-24 23:04 | 45.46312 | 1.22439 | 16190 ft | 347 kts | 178° |
| 2026-04-24 23:04 | 45.43905 | 1.22694 | 15769 ft | 346 kts | 178° |
| 2026-04-24 23:04 | 45.41513 | 1.22946 | 15355 ft | 344 kts | 178° |
| 2026-04-24 23:04 | 45.39130 | 1.23197 | 14945 ft | 343 kts | 178° |
| 2026-04-24 23:05 | 45.36750 | 1.23446 | 14526 ft | 342 kts | 178° |
| 2026-04-24 23:05 | 45.34390 | 1.23465 | 14116 ft | 338 kts | 189° |
| 2026-04-24 23:05 | 45.32127 | 1.22667 | 13683 ft | 333 kts | 205° |
| 2026-04-24 23:05 | 45.30098 | 1.21146 | 13278 ft | 328 kts | 213° |
| 2026-04-24 23:06 | 45.28144 | 1.19497 | 12871 ft | 326 kts | 213° |
| 2026-04-24 23:06 | 45.26197 | 1.17865 | 12480 ft | 324 kts | 213° |
| 2026-04-24 23:06 | 45.24264 | 1.16251 | 12090 ft | 322 kts | 213° |
| 2026-04-24 23:06 | 45.22341 | 1.14647 | 11687 ft | 320 kts | 212° |
| 2026-04-24 23:07 | 45.20428 | 1.13052 | 11289 ft | 318 kts | 212° |
| 2026-04-24 23:07 | 45.18523 | 1.11460 | 10902 ft | 317 kts | 212° |
| 2026-04-24 23:07 | 45.16635 | 1.09882 | 10616 ft | 311 kts | 212° |
| 2026-04-24 23:07 | 45.14817 | 1.08367 | 10403 ft | 296 kts | 212° |
| 2026-04-24 23:08 | 45.13083 | 1.06925 | 9884 ft | 290 kts | 212° |
| 2026-04-24 23:08 | 45.11363 | 1.05497 | 9404 ft | 282 kts | 212° |
| 2026-04-24 23:08 | 45.09676 | 1.04094 | 9041 ft | 275 kts | 212° |
| 2026-04-24 23:08 | 45.08051 | 1.02740 | 8714 ft | 275 kts | 212° |
| 2026-04-24 23:09 | 45.06399 | 1.01364 | 8363 ft | 275 kts | 212° |
| 2026-04-24 23:09 | 45.04748 | 0.99992 | 8018 ft | 275 kts | 211° |
| 2026-04-24 23:09 | 45.03096 | 0.98620 | 7670 ft | 275 kts | 211° |
| 2026-04-24 23:09 | 45.01446 | 0.97252 | 7328 ft | 275 kts | 211° |
| 2026-04-24 23:10 | 44.99791 | 0.95882 | 6979 ft | 276 kts | 211° |
| 2026-04-24 23:10 | 44.98100 | 0.94537 | 6417 ft | 278 kts | 210° |
| 2026-04-24 23:10 | 44.96412 | 0.93248 | 5854 ft | 275 kts | 209° |
| 2026-04-24 23:10 | 44.94732 | 0.91984 | 5260 ft | 273 kts | 208° |
| 2026-04-24 23:11 | 44.93063 | 0.90730 | 4660 ft | 271 kts | 208° |
| 2026-04-24 23:11 | 44.91403 | 0.89476 | 4043 ft | 270 kts | 208° |
| 2026-04-24 23:11 | 44.89737 | 0.88209 | 3363 ft | 272 kts | 209° |
| 2026-04-24 23:11 | 44.88107 | 0.86967 | 3070 ft | 259 kts | 209° |
| 2026-04-24 23:12 | 44.86579 | 0.85807 | 2922 ft | 240 kts | 209° |
| 2026-04-24 23:12 | 44.85171 | 0.84739 | 2819 ft | 220 kts | 209° |
| 2026-04-24 23:12 | 44.83874 | 0.83752 | 2727 ft | 205 kts | 209° |
| 2026-04-24 23:12 | 44.82681 | 0.82841 | 2663 ft | 184 kts | 210° |
| 2026-04-24 23:13 | 44.81690 | 0.81900 | 2570 ft | 163 kts | 227° |
| 2026-04-24 23:13 | 44.81109 | 0.80603 | 2516 ft | 154 kts | 251° |
| 2026-04-24 23:13 | 44.80950 | 0.79151 | 2518 ft | 146 kts | 273° |
| 2026-04-24 23:13 | 44.81034 | 0.77738 | 2526 ft | 144 kts | 274° |
| 2026-04-24 23:14 | 44.81112 | 0.76347 | 2520 ft | 142 kts | 274° |
| 2026-04-24 23:14 | 44.81187 | 0.74972 | 2518 ft | 140 kts | 275° |
| 2026-04-24 23:14 | 44.81262 | 0.73612 | 2516 ft | 140 kts | 275° |
| 2026-04-24 23:14 | 44.81338 | 0.72255 | 2507 ft | 139 kts | 275° |
| 2026-04-24 23:15 | 44.81413 | 0.70899 | 2515 ft | 139 kts | 275° |
| 2026-04-24 23:15 | 44.81488 | 0.69543 | 2513 ft | 138 kts | 275° |
| 2026-04-24 23:15 | 44.81564 | 0.68177 | 2319 ft | 139 kts | 275° |
| 2026-04-24 23:15 | 44.81638 | 0.66824 | 2116 ft | 139 kts | 276° |
| 2026-04-24 23:16 | 44.81712 | 0.65475 | 1944 ft | 138 kts | 276° |
| 2026-04-24 23:16 | 44.81787 | 0.64135 | 1743 ft | 136 kts | 275° |
| 2026-04-24 23:16 | 44.81855 | 0.62806 | 1571 ft | 136 kts | 276° |
| 2026-04-24 23:16 | 44.81927 | 0.61482 | 1370 ft | 135 kts | 275° |
| 2026-04-24 23:17 | 44.81999 | 0.60171 | 1191 ft | 135 kts | 275° |
| 2026-04-24 23:17 | 44.82073 | 0.58850 | 1010 ft | 136 kts | 274° |
| 2026-04-24 23:17 | 44.82148 | 0.57518 | 850 ft | 136 kts | 275° |
| 2026-04-24 23:17 | 44.82224 | 0.56187 | 636 ft | 136 kts | 274° |
| 2026-04-24 23:18 | 44.82290 | 0.54861 | 478 ft | 137 kts | 273° |
| 2026-04-24 23:18 | 44.82361 | 0.53537 | 303 ft | 135 kts | 274° |
| 2026-04-24 23:18 | 44.82431 | 0.52246 | 179 ft | 121 kts | 274° |
| 2026-04-24 23:18 | 44.82475 | 0.51468 | 178 ft | 36 kts | 275° |
| 2026-04-24 23:19 | 44.82490 | 0.51166 | 177 ft | 33 kts | 275° |
| 2026-04-24 23:19 | 44.82509 | 0.50845 | 179 ft | 33 kts | 275° |
| 2026-04-24 23:19 | 44.82486 | 0.50676 | 177 ft | 13 kts | 197° |
| 2026-04-24 23:19 | 44.82384 | 0.50660 | 177 ft | 12 kts | 176° |
| 2026-04-24 23:20 | 44.82350 | 0.50744 | 177 ft | 12 kts | 93° |
| 2026-04-24 23:20 | 44.82344 | 0.50874 | 177 ft | 15 kts | 94° |
| 2026-04-24 23:20 | 44.82335 | 0.51025 | 177 ft | 17 kts | 95° |
| 2026-04-24 23:20 | 44.82325 | 0.51210 | 177 ft | 20 kts | 94° |
| 2026-04-24 23:21 | 44.82315 | 0.51400 | 177 ft | 18 kts | 94° |
| 2026-04-24 23:21 | 44.82309 | 0.51530 | 177 ft | 13 kts | 94° |
| 2026-04-24 23:21 | 44.82302 | 0.51665 | 177 ft | 14 kts | 96° |
| 2026-04-24 23:21 | 44.82262 | 0.51728 | 177 ft | 9 kts | 195° |
| 2026-04-24 23:22 | 44.82248 | 0.51639 | 177 ft | 11 kts | 274° |
| 2026-04-24 23:22 | 44.82268 | 0.51566 | 177 ft | 3 kts | 308° |
| 2026-04-24 23:22 | 44.82275 | 0.51553 | 177 ft | 0 kts | 308° |